sensor_id;sensor_type;location;lat;lon;timestamp;P1;durP1;ratioP1;P2;durP2;ratioP2
7613;SDS011;3848;42.016;23.098;2022-09-13T00:01:16;11.07;;;10.20;;
7613;SDS011;3848;42.016;23.098;2022-09-13T00:03:45;11.17;;;10.40;;
7613;SDS011;3848;42.016;23.098;2022-09-13T00:06:12;10.40;;;9.90;;
7613;SDS011;3848;42.016;23.098;2022-09-13T00:08:41;10.90;;;10.20;;
7613;SDS011;3848;42.016;23.098;2022-09-13T00:11:13;9.43;;;9.03;;
7613;SDS011;3848;42.016;23.098;2022-09-13T00:13:41;10.07;;;9.57;;
7613;SDS011;3848;42.016;23.098;2022-09-13T00:16:10;9.77;;;9.37;;
7613;SDS011;3848;42.016;23.098;2022-09-13T00:18:37;9.97;;;9.47;;
7613;SDS011;3848;42.016;23.098;2022-09-13T00:21:08;10.17;;;9.67;;
7613;SDS011;3848;42.016;23.098;2022-09-13T00:23:36;9.20;;;8.80;;
7613;SDS011;3848;42.016;23.098;2022-09-13T00:26:04;10.23;;;9.73;;
7613;SDS011;3848;42.016;23.098;2022-09-13T00:28:33;10.57;;;10.07;;
7613;SDS011;3848;42.016;23.098;2022-09-13T00:31:00;10.50;;;9.93;;
7613;SDS011;3848;42.016;23.098;2022-09-13T00:33:28;9.87;;;9.33;;
7613;SDS011;3848;42.016;23.098;2022-09-13T00:35:55;9.87;;;9.37;;
7613;SDS011;3848;42.016;23.098;2022-09-13T00:38:23;9.50;;;9.10;;
7613;SDS011;3848;42.016;23.098;2022-09-13T00:40:50;9.80;;;9.30;;
7613;SDS011;3848;42.016;23.098;2022-09-13T00:43:18;10.47;;;9.97;;
7613;SDS011;3848;42.016;23.098;2022-09-13T00:45:46;9.57;;;9.17;;
7613;SDS011;3848;42.016;23.098;2022-09-13T00:48:15;9.57;;;9.17;;
7613;SDS011;3848;42.016;23.098;2022-09-13T00:50:46;10.13;;;9.67;;
7613;SDS011;3848;42.016;23.098;2022-09-13T00:53:17;9.77;;;9.30;;
7613;SDS011;3848;42.016;23.098;2022-09-13T00:55:51;10.03;;;9.53;;
7613;SDS011;3848;42.016;23.098;2022-09-13T00:58:22;10.10;;;9.60;;
7613;SDS011;3848;42.016;23.098;2022-09-13T01:00:52;9.70;;;9.20;;
7613;SDS011;3848;42.016;23.098;2022-09-13T01:03:22;9.83;;;9.33;;
7613;SDS011;3848;42.016;23.098;2022-09-13T01:05:53;8.97;;;8.57;;
7613;SDS011;3848;42.016;23.098;2022-09-13T01:08:24;10.90;;;9.93;;
7613;SDS011;3848;42.016;23.098;2022-09-13T01:10:54;9.17;;;8.77;;
7613;SDS011;3848;42.016;23.098;2022-09-13T01:13:24;9.03;;;8.63;;
7613;SDS011;3848;42.016;23.098;2022-09-13T01:15:53;9.83;;;9.33;;
7613;SDS011;3848;42.016;23.098;2022-09-13T01:18:20;9.77;;;9.37;;
7613;SDS011;3848;42.016;23.098;2022-09-13T01:20:57;8.77;;;8.37;;
7613;SDS011;3848;42.016;23.098;2022-09-13T01:23:58;10.10;;;9.63;;
7613;SDS011;3848;42.016;23.098;2022-09-13T01:26:58;9.70;;;9.20;;
7613;SDS011;3848;42.016;23.098;2022-09-13T01:32:36;10.33;;;9.63;;
7613;SDS011;3848;42.016;23.098;2022-09-13T01:35:35;10.17;;;9.57;;
7613;SDS011;3848;42.016;23.098;2022-09-13T01:38:16;10.53;;;10.03;;
7613;SDS011;3848;42.016;23.098;2022-09-13T01:40:55;10.40;;;9.70;;
7613;SDS011;3848;42.016;23.098;2022-09-13T01:43:36;10.07;;;9.57;;
7613;SDS011;3848;42.016;23.098;2022-09-13T01:46:12;10.17;;;9.67;;
7613;SDS011;3848;42.016;23.098;2022-09-13T01:48:48;9.60;;;9.10;;
7613;SDS011;3848;42.016;23.098;2022-09-13T01:51:22;9.93;;;9.43;;
7613;SDS011;3848;42.016;23.098;2022-09-13T01:53:57;9.27;;;8.87;;
7613;SDS011;3848;42.016;23.098;2022-09-13T01:56:37;9.43;;;9.03;;
7613;SDS011;3848;42.016;23.098;2022-09-13T01:59:10;9.70;;;9.20;;
7613;SDS011;3848;42.016;23.098;2022-09-13T02:01:43;9.60;;;9.13;;
7613;SDS011;3848;42.016;23.098;2022-09-13T02:04:16;9.77;;;9.27;;
7613;SDS011;3848;42.016;23.098;2022-09-13T02:06:48;9.57;;;9.07;;
7613;SDS011;3848;42.016;23.098;2022-09-13T02:09:19;8.97;;;8.57;;
7613;SDS011;3848;42.016;23.098;2022-09-13T02:11:50;10.33;;;9.83;;
7613;SDS011;3848;42.016;23.098;2022-09-13T02:14:24;9.50;;;9.10;;
7613;SDS011;3848;42.016;23.098;2022-09-13T02:16:58;9.67;;;9.27;;
7613;SDS011;3848;42.016;23.098;2022-09-13T02:19:32;10.47;;;9.87;;
7613;SDS011;3848;42.016;23.098;2022-09-13T02:22:02;10.33;;;9.73;;
7613;SDS011;3848;42.016;23.098;2022-09-13T02:24:32;9.00;;;8.60;;
7613;SDS011;3848;42.016;23.098;2022-09-13T02:27:02;9.67;;;9.17;;
7613;SDS011;3848;42.016;23.098;2022-09-13T02:29:33;10.17;;;9.57;;
7613;SDS011;3848;42.016;23.098;2022-09-13T02:32:08;9.80;;;9.37;;
7613;SDS011;3848;42.016;23.098;2022-09-13T02:34:41;8.97;;;8.57;;
7613;SDS011;3848;42.016;23.098;2022-09-13T02:37:12;9.60;;;9.20;;
7613;SDS011;3848;42.016;23.098;2022-09-13T02:39:40;9.53;;;9.03;;
7613;SDS011;3848;42.016;23.098;2022-09-13T02:42:14;10.40;;;9.90;;
7613;SDS011;3848;42.016;23.098;2022-09-13T02:44:44;10.43;;;9.93;;
7613;SDS011;3848;42.016;23.098;2022-09-13T02:47:18;10.03;;;9.43;;
7613;SDS011;3848;42.016;23.098;2022-09-13T02:50:03;10.00;;;9.40;;
7613;SDS011;3848;42.016;23.098;2022-09-13T02:52:37;9.77;;;9.27;;
7613;SDS011;3848;42.016;23.098;2022-09-13T02:55:15;10.60;;;10.10;;
7613;SDS011;3848;42.016;23.098;2022-09-13T02:57:51;10.40;;;9.83;;
7613;SDS011;3848;42.016;23.098;2022-09-13T03:00:25;9.67;;;9.27;;
7613;SDS011;3848;42.016;23.098;2022-09-13T03:02:55;9.80;;;9.40;;
7613;SDS011;3848;42.016;23.098;2022-09-13T03:05:24;10.27;;;9.80;;
7613;SDS011;3848;42.016;23.098;2022-09-13T03:07:51;10.03;;;9.53;;
7613;SDS011;3848;42.016;23.098;2022-09-13T03:10:18;10.30;;;9.63;;
7613;SDS011;3848;42.016;23.098;2022-09-13T03:15:42;10.23;;;9.70;;
7613;SDS011;3848;42.016;23.098;2022-09-13T03:18:22;9.47;;;8.97;;
7613;SDS011;3848;42.016;23.098;2022-09-13T03:21:00;9.73;;;9.33;;
7613;SDS011;3848;42.016;23.098;2022-09-13T03:23:40;9.83;;;9.40;;
7613;SDS011;3848;42.016;23.098;2022-09-13T03:26:23;9.87;;;9.30;;
7613;SDS011;3848;42.016;23.098;2022-09-13T03:29:12;9.67;;;9.23;;
7613;SDS011;3848;42.016;23.098;2022-09-13T03:31:52;9.07;;;8.60;;
7613;SDS011;3848;42.016;23.098;2022-09-13T03:34:32;10.13;;;9.63;;
7613;SDS011;3848;42.016;23.098;2022-09-13T03:37:09;9.47;;;8.97;;
7613;SDS011;3848;42.016;23.098;2022-09-13T03:39:46;9.73;;;9.30;;
7613;SDS011;3848;42.016;23.098;2022-09-13T03:42:19;9.97;;;9.47;;
7613;SDS011;3848;42.016;23.098;2022-09-13T03:44:51;15.70;;;9.40;;
7613;SDS011;3848;42.016;23.098;2022-09-13T03:47:21;10.63;;;10.13;;
7613;SDS011;3848;42.016;23.098;2022-09-13T03:49:51;9.00;;;8.60;;
7613;SDS011;3848;42.016;23.098;2022-09-13T03:52:19;9.37;;;8.80;;
7613;SDS011;3848;42.016;23.098;2022-09-13T03:54:46;9.33;;;8.93;;
7613;SDS011;3848;42.016;23.098;2022-09-13T03:57:14;9.97;;;9.43;;
7613;SDS011;3848;42.016;23.098;2022-09-13T03:59:45;11.10;;;10.50;;
7613;SDS011;3848;42.016;23.098;2022-09-13T04:02:14;10.33;;;9.83;;
7613;SDS011;3848;42.016;23.098;2022-09-13T04:04:42;10.07;;;9.57;;
7613;SDS011;3848;42.016;23.098;2022-09-13T04:07:13;11.37;;;10.67;;
7613;SDS011;3848;42.016;23.098;2022-09-13T04:09:41;11.13;;;10.53;;
7613;SDS011;3848;42.016;23.098;2022-09-13T04:12:08;11.20;;;10.60;;
7613;SDS011;3848;42.016;23.098;2022-09-13T04:14:35;12.43;;;11.73;;
7613;SDS011;3848;42.016;23.098;2022-09-13T04:17:02;11.60;;;11.00;;
7613;SDS011;3848;42.016;23.098;2022-09-13T04:19:29;13.33;;;12.63;;
7613;SDS011;3848;42.016;23.098;2022-09-13T04:21:56;12.70;;;12.03;;
7613;SDS011;3848;42.016;23.098;2022-09-13T04:24:24;13.73;;;13.03;;
7613;SDS011;3848;42.016;23.098;2022-09-13T04:26:53;14.50;;;13.60;;
7613;SDS011;3848;42.016;23.098;2022-09-13T04:29:21;12.57;;;11.97;;
7613;SDS011;3848;42.016;23.098;2022-09-13T04:31:50;12.20;;;11.60;;
7613;SDS011;3848;42.016;23.098;2022-09-13T04:34:18;11.93;;;11.40;;
7613;SDS011;3848;42.016;23.098;2022-09-13T04:36:46;11.57;;;10.97;;
7613;SDS011;3848;42.016;23.098;2022-09-13T04:39:13;11.07;;;10.57;;
7613;SDS011;3848;42.016;23.098;2022-09-13T04:41:41;12.30;;;11.50;;
7613;SDS011;3848;42.016;23.098;2022-09-13T04:44:11;12.13;;;11.53;;
7613;SDS011;3848;42.016;23.098;2022-09-13T04:46:39;11.87;;;11.37;;
7613;SDS011;3848;42.016;23.098;2022-09-13T04:49:06;12.50;;;11.73;;
7613;SDS011;3848;42.016;23.098;2022-09-13T04:51:34;12.83;;;12.20;;
7613;SDS011;3848;42.016;23.098;2022-09-13T04:54:01;11.63;;;11.03;;
7613;SDS011;3848;42.016;23.098;2022-09-13T04:56:29;13.63;;;12.93;;
7613;SDS011;3848;42.016;23.098;2022-09-13T04:58:57;13.13;;;12.33;;
7613;SDS011;3848;42.016;23.098;2022-09-13T05:01:24;13.07;;;12.47;;
7613;SDS011;3848;42.016;23.098;2022-09-13T05:03:51;13.07;;;12.43;;
7613;SDS011;3848;42.016;23.098;2022-09-13T05:06:18;13.27;;;12.53;;
7613;SDS011;3848;42.016;23.098;2022-09-13T05:08:49;13.60;;;12.90;;
7613;SDS011;3848;42.016;23.098;2022-09-13T05:11:19;13.70;;;13.00;;
7613;SDS011;3848;42.016;23.098;2022-09-13T05:13:47;12.83;;;12.07;;
7613;SDS011;3848;42.016;23.098;2022-09-13T05:16:18;12.80;;;12.10;;
7613;SDS011;3848;42.016;23.098;2022-09-13T05:18:45;12.30;;;11.60;;
7613;SDS011;3848;42.016;23.098;2022-09-13T05:21:12;12.60;;;12.00;;
7613;SDS011;3848;42.016;23.098;2022-09-13T05:23:39;13.17;;;12.47;;
7613;SDS011;3848;42.016;23.098;2022-09-13T05:26:06;13.03;;;12.33;;
7613;SDS011;3848;42.016;23.098;2022-09-13T05:28:33;11.90;;;11.30;;
7613;SDS011;3848;42.016;23.098;2022-09-13T05:31:02;13.10;;;12.47;;
7613;SDS011;3848;42.016;23.098;2022-09-13T05:33:33;13.50;;;12.77;;
7613;SDS011;3848;42.016;23.098;2022-09-13T05:36:01;13.50;;;12.47;;
7613;SDS011;3848;42.016;23.098;2022-09-13T05:38:29;12.77;;;12.07;;
7613;SDS011;3848;42.016;23.098;2022-09-13T05:40:56;12.93;;;12.03;;
7613;SDS011;3848;42.016;23.098;2022-09-13T05:43:26;13.50;;;12.70;;
7613;SDS011;3848;42.016;23.098;2022-09-13T05:46:04;12.20;;;11.60;;
7613;SDS011;3848;42.016;23.098;2022-09-13T05:48:34;13.63;;;12.83;;
7613;SDS011;3848;42.016;23.098;2022-09-13T05:51:06;12.20;;;11.50;;
7613;SDS011;3848;42.016;23.098;2022-09-13T05:53:34;13.63;;;12.43;;
7613;SDS011;3848;42.016;23.098;2022-09-13T05:56:02;12.80;;;12.10;;
7613;SDS011;3848;42.016;23.098;2022-09-13T05:58:29;12.57;;;11.83;;
7613;SDS011;3848;42.016;23.098;2022-09-13T06:00:56;13.33;;;12.53;;
7613;SDS011;3848;42.016;23.098;2022-09-13T06:03:31;13.10;;;12.20;;
7613;SDS011;3848;42.016;23.098;2022-09-13T06:06:00;12.13;;;11.53;;
7613;SDS011;3848;42.016;23.098;2022-09-13T06:08:27;13.40;;;12.70;;
7613;SDS011;3848;42.016;23.098;2022-09-13T06:10:56;13.83;;;13.03;;
7613;SDS011;3848;42.016;23.098;2022-09-13T06:13:25;13.37;;;12.23;;
7613;SDS011;3848;42.016;23.098;2022-09-13T06:15:52;11.40;;;10.67;;
7613;SDS011;3848;42.016;23.098;2022-09-13T06:18:21;11.50;;;10.90;;
7613;SDS011;3848;42.016;23.098;2022-09-13T06:20:56;12.30;;;11.60;;
7613;SDS011;3848;42.016;23.098;2022-09-13T06:23:25;12.23;;;11.00;;
7613;SDS011;3848;42.016;23.098;2022-09-13T06:25:58;11.10;;;10.50;;
7613;SDS011;3848;42.016;23.098;2022-09-13T06:28:26;10.50;;;9.80;;
7613;SDS011;3848;42.016;23.098;2022-09-13T06:30:58;11.00;;;10.37;;
7613;SDS011;3848;42.016;23.098;2022-09-13T06:33:26;11.60;;;11.00;;
7613;SDS011;3848;42.016;23.098;2022-09-13T06:35:53;9.60;;;9.17;;
7613;SDS011;3848;42.016;23.098;2022-09-13T06:38:20;10.87;;;10.00;;
7613;SDS011;3848;42.016;23.098;2022-09-13T06:40:57;11.70;;;11.10;;
7613;SDS011;3848;42.016;23.098;2022-09-13T06:43:25;12.07;;;11.47;;
7613;SDS011;3848;42.016;23.098;2022-09-13T06:45:51;17.00;;;10.97;;
7613;SDS011;3848;42.016;23.098;2022-09-13T06:48:19;11.33;;;10.80;;
7613;SDS011;3848;42.016;23.098;2022-09-13T06:50:45;11.33;;;10.73;;
7613;SDS011;3848;42.016;23.098;2022-09-13T06:53:12;11.20;;;10.60;;
7613;SDS011;3848;42.016;23.098;2022-09-13T06:55:39;12.00;;;11.40;;
7613;SDS011;3848;42.016;23.098;2022-09-13T06:58:07;11.97;;;11.27;;
7613;SDS011;3848;42.016;23.098;2022-09-13T07:00:34;11.93;;;11.20;;
7613;SDS011;3848;42.016;23.098;2022-09-13T07:03:01;9.97;;;9.57;;
7613;SDS011;3848;42.016;23.098;2022-09-13T07:05:28;11.60;;;11.00;;
7613;SDS011;3848;42.016;23.098;2022-09-13T07:07:55;11.00;;;10.50;;
7613;SDS011;3848;42.016;23.098;2022-09-13T07:10:21;12.63;;;11.83;;
7613;SDS011;3848;42.016;23.098;2022-09-13T07:12:48;17.97;;;16.87;;
7613;SDS011;3848;42.016;23.098;2022-09-13T07:15:16;11.10;;;10.50;;
7613;SDS011;3848;42.016;23.098;2022-09-13T07:20:41;10.83;;;10.30;;
7613;SDS011;3848;42.016;23.098;2022-09-13T07:23:07;11.03;;;10.43;;
7613;SDS011;3848;42.016;23.098;2022-09-13T07:25:34;11.43;;;10.83;;
7613;SDS011;3848;42.016;23.098;2022-09-13T07:28:01;11.27;;;10.67;;
7613;SDS011;3848;42.016;23.098;2022-09-13T07:30:29;11.93;;;11.20;;
7613;SDS011;3848;42.016;23.098;2022-09-13T07:32:56;12.03;;;11.50;;
7613;SDS011;3848;42.016;23.098;2022-09-13T07:35:23;11.93;;;11.23;;
7613;SDS011;3848;42.016;23.098;2022-09-13T07:37:50;11.67;;;11.07;;
7613;SDS011;3848;42.016;23.098;2022-09-13T07:40:17;13.37;;;12.67;;
7613;SDS011;3848;42.016;23.098;2022-09-13T07:42:44;13.13;;;12.50;;
7613;SDS011;3848;42.016;23.098;2022-09-13T07:45:11;14.70;;;13.83;;
7613;SDS011;3848;42.016;23.098;2022-09-13T07:47:39;17.50;;;16.60;;
7613;SDS011;3848;42.016;23.098;2022-09-13T07:50:06;16.30;;;15.57;;
7613;SDS011;3848;42.016;23.098;2022-09-13T07:52:34;18.03;;;17.03;;
7613;SDS011;3848;42.016;23.098;2022-09-13T07:55:02;18.00;;;17.10;;
7613;SDS011;3848;42.016;23.098;2022-09-13T07:57:30;15.60;;;14.77;;
7613;SDS011;3848;42.016;23.098;2022-09-13T07:59:57;12.80;;;12.20;;
7613;SDS011;3848;42.016;23.098;2022-09-13T08:02:24;13.33;;;12.57;;
7613;SDS011;3848;42.016;23.098;2022-09-13T08:04:54;12.57;;;11.80;;
7613;SDS011;3848;42.016;23.098;2022-09-13T08:07:21;11.43;;;10.93;;
7613;SDS011;3848;42.016;23.098;2022-09-13T08:09:48;11.97;;;11.37;;
7613;SDS011;3848;42.016;23.098;2022-09-13T08:12:14;12.87;;;11.53;;
7613;SDS011;3848;42.016;23.098;2022-09-13T08:14:43;10.00;;;9.57;;
7613;SDS011;3848;42.016;23.098;2022-09-13T08:17:09;11.27;;;10.67;;
7613;SDS011;3848;42.016;23.098;2022-09-13T08:19:36;11.03;;;10.53;;
7613;SDS011;3848;42.016;23.098;2022-09-13T08:22:04;10.20;;;9.67;;
7613;SDS011;3848;42.016;23.098;2022-09-13T08:24:31;11.17;;;10.63;;
7613;SDS011;3848;42.016;23.098;2022-09-13T08:26:58;10.67;;;10.03;;
7613;SDS011;3848;42.016;23.098;2022-09-13T08:29:25;9.90;;;9.40;;
7613;SDS011;3848;42.016;23.098;2022-09-13T08:31:52;10.33;;;9.83;;
7613;SDS011;3848;42.016;23.098;2022-09-13T08:34:19;10.40;;;9.83;;
7613;SDS011;3848;42.016;23.098;2022-09-13T08:36:46;10.70;;;10.20;;
7613;SDS011;3848;42.016;23.098;2022-09-13T08:39:14;13.07;;;12.27;;
7613;SDS011;3848;42.016;23.098;2022-09-13T08:44:33;13.60;;;12.90;;
7613;SDS011;3848;42.016;23.098;2022-09-13T08:47:20;12.80;;;12.20;;
7613;SDS011;3848;42.016;23.098;2022-09-13T08:49:54;13.47;;;12.77;;
7613;SDS011;3848;42.016;23.098;2022-09-13T08:52:27;15.67;;;14.87;;
7613;SDS011;3848;42.016;23.098;2022-09-13T08:54:57;16.17;;;15.37;;
7613;SDS011;3848;42.016;23.098;2022-09-13T08:57:29;15.57;;;14.60;;
7613;SDS011;3848;42.016;23.098;2022-09-13T09:00:03;15.40;;;14.70;;
7613;SDS011;3848;42.016;23.098;2022-09-13T09:02:46;14.73;;;14.03;;
7613;SDS011;3848;42.016;23.098;2022-09-13T09:05:23;14.70;;;14.00;;
7613;SDS011;3848;42.016;23.098;2022-09-13T09:07:55;14.53;;;13.83;;
7613;SDS011;3848;42.016;23.098;2022-09-13T09:10:26;14.87;;;14.17;;
7613;SDS011;3848;42.016;23.098;2022-09-13T09:12:57;14.90;;;14.20;;
7613;SDS011;3848;42.016;23.098;2022-09-13T09:15:28;16.77;;;15.87;;
7613;SDS011;3848;42.016;23.098;2022-09-13T09:18:01;15.27;;;14.57;;
7613;SDS011;3848;42.016;23.098;2022-09-13T09:20:33;12.00;;;11.40;;
7613;SDS011;3848;42.016;23.098;2022-09-13T09:23:06;12.50;;;11.90;;
7613;SDS011;3848;42.016;23.098;2022-09-13T09:25:41;9.83;;;9.37;;
7613;SDS011;3848;42.016;23.098;2022-09-13T09:28:11;10.30;;;9.80;;
7613;SDS011;3848;42.016;23.098;2022-09-13T09:30:40;8.90;;;8.50;;
7613;SDS011;3848;42.016;23.098;2022-09-13T09:33:21;8.77;;;8.27;;
7613;SDS011;3848;42.016;23.098;2022-09-13T09:36:02;10.33;;;9.83;;
7613;SDS011;3848;42.016;23.098;2022-09-13T09:38:37;11.03;;;10.53;;
7613;SDS011;3848;42.016;23.098;2022-09-13T09:41:10;9.93;;;9.43;;
7613;SDS011;3848;42.016;23.098;2022-09-13T09:43:41;9.50;;;9.00;;
7613;SDS011;3848;42.016;23.098;2022-09-13T09:46:12;9.83;;;9.33;;
7613;SDS011;3848;42.016;23.098;2022-09-13T09:48:43;10.03;;;9.53;;
7613;SDS011;3848;42.016;23.098;2022-09-13T09:51:17;10.23;;;9.73;;
7613;SDS011;3848;42.016;23.098;2022-09-13T09:53:49;9.73;;;9.33;;
7613;SDS011;3848;42.016;23.098;2022-09-13T09:56:23;9.80;;;9.30;;
7613;SDS011;3848;42.016;23.098;2022-09-13T09:58:51;9.20;;;8.80;;
7613;SDS011;3848;42.016;23.098;2022-09-13T10:01:23;10.83;;;10.27;;
7613;SDS011;3848;42.016;23.098;2022-09-13T10:03:53;10.57;;;9.97;;
7613;SDS011;3848;42.016;23.098;2022-09-13T10:06:26;9.77;;;9.17;;
7613;SDS011;3848;42.016;23.098;2022-09-13T10:08:56;8.73;;;8.33;;
7613;SDS011;3848;42.016;23.098;2022-09-13T10:11:41;8.23;;;7.83;;
7613;SDS011;3848;42.016;23.098;2022-09-13T10:17:15;7.23;;;6.93;;
7613;SDS011;3848;42.016;23.098;2022-09-13T10:19:50;9.50;;;8.90;;
7613;SDS011;3848;42.016;23.098;2022-09-13T10:22:19;10.33;;;9.73;;
7613;SDS011;3848;42.016;23.098;2022-09-13T10:24:47;10.37;;;9.67;;
7613;SDS011;3848;42.016;23.098;2022-09-13T10:27:20;8.97;;;8.57;;
7613;SDS011;3848;42.016;23.098;2022-09-13T10:29:50;8.83;;;8.43;;
7613;SDS011;3848;42.016;23.098;2022-09-13T10:32:23;9.10;;;8.70;;
7613;SDS011;3848;42.016;23.098;2022-09-13T10:34:51;10.13;;;9.63;;
7613;SDS011;3848;42.016;23.098;2022-09-13T10:37:20;8.80;;;8.40;;
7613;SDS011;3848;42.016;23.098;2022-09-13T10:39:58;9.13;;;8.73;;
7613;SDS011;3848;42.016;23.098;2022-09-13T10:42:31;9.17;;;8.77;;
7613;SDS011;3848;42.016;23.098;2022-09-13T10:45:00;9.90;;;9.40;;
7613;SDS011;3848;42.016;23.098;2022-09-13T10:47:31;9.20;;;8.80;;
7613;SDS011;3848;42.016;23.098;2022-09-13T10:50:17;8.67;;;8.27;;
7613;SDS011;3848;42.016;23.098;2022-09-13T10:52:46;7.67;;;7.30;;
7613;SDS011;3848;42.016;23.098;2022-09-13T10:55:33;8.03;;;7.70;;
7613;SDS011;3848;42.016;23.098;2022-09-13T10:58:15;9.57;;;9.17;;
7613;SDS011;3848;42.016;23.098;2022-09-13T11:00:45;9.40;;;8.90;;
7613;SDS011;3848;42.016;23.098;2022-09-13T11:03:27;9.03;;;8.63;;
7613;SDS011;3848;42.016;23.098;2022-09-13T11:06:08;8.90;;;8.40;;
7613;SDS011;3848;42.016;23.098;2022-09-13T11:08:45;9.70;;;9.20;;
7613;SDS011;3848;42.016;23.098;2022-09-13T11:11:20;10.03;;;9.53;;
7613;SDS011;3848;42.016;23.098;2022-09-13T11:13:57;10.50;;;9.80;;
7613;SDS011;3848;42.016;23.098;2022-09-13T11:16:39;13.20;;;12.30;;
7613;SDS011;3848;42.016;23.098;2022-09-13T11:19:18;11.90;;;11.20;;
7613;SDS011;3848;42.016;23.098;2022-09-13T11:22:05;10.63;;;10.13;;
7613;SDS011;3848;42.016;23.098;2022-09-13T11:24:50;12.87;;;12.27;;
7613;SDS011;3848;42.016;23.098;2022-09-13T11:27:30;10.90;;;10.40;;
7613;SDS011;3848;42.016;23.098;2022-09-13T11:30:11;11.13;;;10.63;;
7613;SDS011;3848;42.016;23.098;2022-09-13T11:35:53;10.33;;;9.83;;
7613;SDS011;3848;42.016;23.098;2022-09-13T11:38:34;8.40;;;8.00;;
7613;SDS011;3848;42.016;23.098;2022-09-13T11:41:08;10.30;;;9.80;;
7613;SDS011;3848;42.016;23.098;2022-09-13T11:43:46;11.53;;;10.50;;
7613;SDS011;3848;42.016;23.098;2022-09-13T11:46:26;10.47;;;9.90;;
7613;SDS011;3848;42.016;23.098;2022-09-13T11:49:03;8.87;;;8.47;;
7613;SDS011;3848;42.016;23.098;2022-09-13T11:51:46;8.73;;;8.33;;
7613;SDS011;3848;42.016;23.098;2022-09-13T11:54:30;8.57;;;8.17;;
7613;SDS011;3848;42.016;23.098;2022-09-13T11:57:05;8.73;;;8.30;;
7613;SDS011;3848;42.016;23.098;2022-09-13T11:59:37;9.87;;;9.37;;
7613;SDS011;3848;42.016;23.098;2022-09-13T12:02:16;12.10;;;11.50;;
7613;SDS011;3848;42.016;23.098;2022-09-13T12:04:49;10.50;;;10.00;;
7613;SDS011;3848;42.016;23.098;2022-09-13T12:07:24;9.30;;;8.83;;
7613;SDS011;3848;42.016;23.098;2022-09-13T12:09:59;9.23;;;8.83;;
7613;SDS011;3848;42.016;23.098;2022-09-13T12:12:33;10.10;;;9.60;;
7613;SDS011;3848;42.016;23.098;2022-09-13T12:15:02;11.23;;;10.67;;
7613;SDS011;3848;42.016;23.098;2022-09-13T12:17:36;12.40;;;11.77;;
7613;SDS011;3848;42.016;23.098;2022-09-13T12:20:11;11.53;;;10.97;;
7613;SDS011;3848;42.016;23.098;2022-09-13T12:22:44;11.13;;;10.57;;
7613;SDS011;3848;42.016;23.098;2022-09-13T12:25:17;10.63;;;10.03;;
7613;SDS011;3848;42.016;23.098;2022-09-13T12:27:49;10.50;;;10.00;;
7613;SDS011;3848;42.016;23.098;2022-09-13T12:30:22;9.67;;;9.20;;
7613;SDS011;3848;42.016;23.098;2022-09-13T12:32:53;9.90;;;9.40;;
7613;SDS011;3848;42.016;23.098;2022-09-13T12:35:23;9.17;;;8.77;;
7613;SDS011;3848;42.016;23.098;2022-09-13T12:37:58;9.93;;;9.43;;
7613;SDS011;3848;42.016;23.098;2022-09-13T12:40:38;11.47;;;10.90;;
7613;SDS011;3848;42.016;23.098;2022-09-13T12:49:30;10.73;;;9.30;;
7613;SDS011;3848;42.016;23.098;2022-09-13T12:52:14;10.20;;;9.70;;
7613;SDS011;3848;42.016;23.098;2022-09-13T12:58:02;11.70;;;11.07;;
7613;SDS011;3848;42.016;23.098;2022-09-13T13:00:43;11.80;;;11.20;;
7613;SDS011;3848;42.016;23.098;2022-09-13T13:03:31;11.40;;;10.90;;
7613;SDS011;3848;42.016;23.098;2022-09-13T13:06:08;11.37;;;10.73;;
7613;SDS011;3848;42.016;23.098;2022-09-13T13:08:47;11.87;;;11.33;;
7613;SDS011;3848;42.016;23.098;2022-09-13T13:11:16;11.87;;;11.27;;
7613;SDS011;3848;42.016;23.098;2022-09-13T13:13:52;13.33;;;12.53;;
7613;SDS011;3848;42.016;23.098;2022-09-13T13:16:23;11.00;;;10.50;;
7613;SDS011;3848;42.016;23.098;2022-09-13T13:18:53;12.37;;;11.77;;
7613;SDS011;3848;42.016;23.098;2022-09-13T13:21:24;10.87;;;10.37;;
7613;SDS011;3848;42.016;23.098;2022-09-13T13:33:21;10.77;;;10.27;;
7613;SDS011;3848;42.016;23.098;2022-09-13T13:35:53;11.00;;;10.47;;
7613;SDS011;3848;42.016;23.098;2022-09-13T13:38:37;12.23;;;11.63;;
7613;SDS011;3848;42.016;23.098;2022-09-13T13:41:17;12.60;;;12.00;;
7613;SDS011;3848;42.016;23.098;2022-09-13T13:50:07;9.53;;;9.10;;
7613;SDS011;3848;42.016;23.098;2022-09-13T13:52:50;10.13;;;9.63;;
7613;SDS011;3848;42.016;23.098;2022-09-13T13:55:27;9.03;;;8.63;;
7613;SDS011;3848;42.016;23.098;2022-09-13T13:58:09;8.50;;;8.10;;
7613;SDS011;3848;42.016;23.098;2022-09-13T14:00:49;9.00;;;8.60;;
7613;SDS011;3848;42.016;23.098;2022-09-13T14:03:20;9.63;;;9.13;;
7613;SDS011;3848;42.016;23.098;2022-09-13T14:05:55;10.10;;;9.60;;
7613;SDS011;3848;42.016;23.098;2022-09-13T14:08:30;9.60;;;9.10;;
7613;SDS011;3848;42.016;23.098;2022-09-13T14:11:07;9.87;;;9.30;;
7613;SDS011;3848;42.016;23.098;2022-09-13T14:13:47;10.97;;;10.27;;
7613;SDS011;3848;42.016;23.098;2022-09-13T14:16:24;9.70;;;9.20;;
7613;SDS011;3848;42.016;23.098;2022-09-13T14:19:05;9.97;;;9.47;;
7613;SDS011;3848;42.016;23.098;2022-09-13T14:22:03;10.47;;;9.87;;
7613;SDS011;3848;42.016;23.098;2022-09-13T14:24:41;9.73;;;9.33;;
7613;SDS011;3848;42.016;23.098;2022-09-13T14:27:15;9.03;;;8.63;;
7613;SDS011;3848;42.016;23.098;2022-09-13T14:29:46;8.77;;;8.37;;
7613;SDS011;3848;42.016;23.098;2022-09-13T14:32:15;9.17;;;8.50;;
7613;SDS011;3848;42.016;23.098;2022-09-13T14:34:53;9.23;;;8.80;;
7613;SDS011;3848;42.016;23.098;2022-09-13T14:37:23;9.60;;;9.10;;
7613;SDS011;3848;42.016;23.098;2022-09-13T14:39:57;9.57;;;9.07;;
7613;SDS011;3848;42.016;23.098;2022-09-13T14:42:36;9.97;;;9.47;;
7613;SDS011;3848;42.016;23.098;2022-09-13T14:45:04;8.60;;;8.20;;
7613;SDS011;3848;42.016;23.098;2022-09-13T14:47:32;9.37;;;8.87;;
7613;SDS011;3848;42.016;23.098;2022-09-13T14:50:07;10.53;;;10.03;;
7613;SDS011;3848;42.016;23.098;2022-09-13T14:52:41;9.93;;;9.43;;
7613;SDS011;3848;42.016;23.098;2022-09-13T14:55:14;10.10;;;9.50;;
7613;SDS011;3848;42.016;23.098;2022-09-13T14:57:47;11.70;;;9.70;;
7613;SDS011;3848;42.016;23.098;2022-09-13T15:00:18;9.63;;;9.23;;
7613;SDS011;3848;42.016;23.098;2022-09-13T15:02:48;8.93;;;8.53;;
7613;SDS011;3848;42.016;23.098;2022-09-13T15:05:18;8.87;;;8.40;;
7613;SDS011;3848;42.016;23.098;2022-09-13T15:07:46;10.47;;;9.97;;
7613;SDS011;3848;42.016;23.098;2022-09-13T15:10:21;10.37;;;9.77;;
7613;SDS011;3848;42.016;23.098;2022-09-13T15:12:53;9.27;;;8.83;;
7613;SDS011;3848;42.016;23.098;2022-09-13T15:15:31;8.60;;;8.20;;
7613;SDS011;3848;42.016;23.098;2022-09-13T15:18:01;8.90;;;8.50;;
7613;SDS011;3848;42.016;23.098;2022-09-13T15:20:30;8.33;;;7.93;;
7613;SDS011;3848;42.016;23.098;2022-09-13T15:23:13;9.77;;;9.27;;
7613;SDS011;3848;42.016;23.098;2022-09-13T15:25:40;9.10;;;8.63;;
7613;SDS011;3848;42.016;23.098;2022-09-13T15:28:18;9.97;;;9.40;;
7613;SDS011;3848;42.016;23.098;2022-09-13T15:30:47;7.97;;;7.67;;
7613;SDS011;3848;42.016;23.098;2022-09-13T15:33:18;8.67;;;8.23;;
7613;SDS011;3848;42.016;23.098;2022-09-13T15:35:48;9.40;;;8.90;;
7613;SDS011;3848;42.016;23.098;2022-09-13T15:38:20;9.30;;;8.80;;
7613;SDS011;3848;42.016;23.098;2022-09-13T15:40:59;9.03;;;8.63;;
7613;SDS011;3848;42.016;23.098;2022-09-13T15:43:29;8.87;;;8.47;;
7613;SDS011;3848;42.016;23.098;2022-09-13T15:45:57;9.97;;;9.37;;
7613;SDS011;3848;42.016;23.098;2022-09-13T15:48:26;10.03;;;9.43;;
7613;SDS011;3848;42.016;23.098;2022-09-13T15:51:04;10.03;;;9.40;;
7613;SDS011;3848;42.016;23.098;2022-09-13T15:53:34;10.30;;;9.80;;
7613;SDS011;3848;42.016;23.098;2022-09-13T15:56:01;9.93;;;9.47;;
7613;SDS011;3848;42.016;23.098;2022-09-13T15:58:30;10.17;;;9.67;;
7613;SDS011;3848;42.016;23.098;2022-09-13T16:00:57;10.77;;;10.17;;